Time;durP1;ratioP1;P1;durP2;ratioP2;P2;SDS_P1;SDS_P2;PMS_P1;PMS_P2;Temp;Humidity;BMP_temperature;BMP_pressure;BME280_temperature;BME280_humidity;BME280_pressure;Samples;Min_cycle;Max_cycle;Signal;HPM_P1;HPM_P2
2023/02/07 00:00:47;;;;;;;1.33;0.70;;;;;;;;;;5113230;28;20047;-61
2023/02/07 00:03:14;;;;;;;1.50;0.73;;;;;;;;;;5093365;28;20024;-62
2023/02/07 00:05:41;;;;;;;0.43;0.33;;;;;;;;;;5098353;28;20077;-62
2023/02/07 00:08:08;;;;;;;0.60;0.40;;;;;;;;;;5089574;28;20095;-62
2023/02/07 00:10:34;;;;;;;0.87;0.60;;;;;;;;;;5108039;28;20031;-62
2023/02/07 00:13:01;;;;;;;1.20;0.73;;;;;;;;;;5107507;28;20020;-62
2023/02/07 00:15:28;;;;;;;1.43;0.90;;;;;;;;;;5098209;28;20483;-62
2023/02/07 00:17:55;;;;;;;1.23;0.80;;;;;;;;;;5093038;28;20016;-61
2023/02/07 00:20:24;;;;;;;1.83;0.93;;;;;;;;;;5101926;28;20035;-62
2023/02/07 00:22:54;;;;;;;1.00;0.70;;;;;;;;;;5094068;28;20044;-62
2023/02/07 00:25:21;;;;;;;1.00;0.53;;;;;;;;;;5098258;28;20451;-62
2023/02/07 00:27:48;;;;;;;1.30;0.80;;;;;;;;;;5094506;28;20051;-62
2023/02/07 00:30:14;;;;;;;1.07;0.60;;;;;;;;;;5093132;28;20020;-62
2023/02/07 00:32:41;;;;;;;0.80;0.70;;;;;;;;;;5092402;28;20378;-61
2023/02/07 00:35:08;;;;;;;3.03;1.47;;;;;;;;;;5100556;28;20027;-62
2023/02/07 00:37:35;;;;;;;0.40;0.40;;;;;;;;;;5117143;28;20450;-62
2023/02/07 00:40:01;;;;;;;0.83;0.60;;;;;;;;;;5107935;28;20032;-63
2023/02/07 00:42:28;;;;;;;0.63;0.53;;;;;;;;;;5096834;28;20049;-62
2023/02/07 00:44:55;;;;;;;1.27;0.70;;;;;;;;;;5103011;28;20104;-61
2023/02/07 00:47:25;;;;;;;0.83;0.47;;;;;;;;;;5116819;28;20023;-62
2023/02/07 00:49:51;;;;;;;1.70;1.00;;;;;;;;;;5094328;28;20032;-62
2023/02/07 00:52:18;;;;;;;1.23;0.87;;;;;;;;;;5091404;28;20050;-62
2023/02/07 00:54:45;;;;;;;4.13;0.97;;;;;;;;;;5094455;28;20031;-62
2023/02/07 00:57:11;;;;;;;2.03;0.93;;;;;;;;;;5099399;28;20020;-61
2023/02/07 00:59:38;;;;;;;1.80;0.87;;;;;;;;;;5095570;28;20560;-62
2023/02/07 01:02:05;;;;;;;1.77;1.13;;;;;;;;;;5101476;28;20393;-62
2023/02/07 01:04:32;;;;;;;11.07;1.57;;;;;;;;;;5114817;28;20080;-61
2023/02/07 01:06:59;;;;;;;3.40;0.97;;;;;;;;;;5112431;28;20506;-62
2023/02/07 01:09:25;;;;;;;2.50;1.60;;;;;;;;;;5095980;28;20020;-62
2023/02/07 01:11:52;;;;;;;2.37;1.43;;;;;;;;;;5092181;28;20027;-61
2023/02/07 01:14:19;;;;;;;4.97;1.90;;;;;;;;;;5090870;28;20543;-62
2023/02/07 01:16:45;;;;;;;3.07;1.67;;;;;;;;;;5092431;28;20061;-62
2023/02/07 01:19:12;;;;;;;3.20;1.70;;;;;;;;;;5090078;28;20039;-61
2023/02/07 01:21:39;;;;;;;3.23;1.57;;;;;;;;;;5110432;28;20028;-62
2023/02/07 01:24:06;;;;;;;1.10;0.77;;;;;;;;;;5113705;28;20028;-62
2023/02/07 01:26:33;;;;;;;2.47;1.43;;;;;;;;;;5057571;28;20048;-62
2023/02/07 01:29:01;;;;;;;26.37;3.10;;;;;;;;;;5111268;28;20111;-62
2023/02/07 01:31:28;;;;;;;4.47;1.63;;;;;;;;;;5116087;28;20047;-62
2023/02/07 01:33:55;;;;;;;2.63;0.87;;;;;;;;;;5109921;28;20019;-62
2023/02/07 01:36:22;;;;;;;2.73;0.97;;;;;;;;;;5089220;28;20035;-62
2023/02/07 01:38:51;;;;;;;17.43;1.40;;;;;;;;;;5086112;28;20378;-61
2023/02/07 01:41:17;;;;;;;6.70;1.33;;;;;;;;;;5090439;28;20028;-61
2023/02/07 01:44:00;;;;;;;2.47;0.90;;;;;;;;;;5099670;28;20023;-61
2023/02/07 01:46:28;;;;;;;2.57;1.10;;;;;;;;;;5097562;28;20032;-61
2023/02/07 01:48:56;;;;;;;2.67;0.90;;;;;;;;;;5100423;28;20052;-61
2023/02/07 01:51:23;;;;;;;6.13;1.27;;;;;;;;;;5093987;28;20027;-61
2023/02/07 01:53:50;;;;;;;4.20;1.50;;;;;;;;;;5095395;28;20030;-61
2023/02/07 01:56:17;;;;;;;1.90;1.37;;;;;;;;;;5094610;28;20028;-61
2023/02/07 01:58:44;;;;;;;7.10;2.30;;;;;;;;;;5089079;28;20110;-61
2023/02/07 02:01:16;;;;;;;32.73;1.60;;;;;;;;;;5088950;28;20383;-61
2023/02/07 02:03:43;;;;;;;6.33;1.13;;;;;;;;;;5088853;28;20024;-61
2023/02/07 02:06:11;;;;;;;3.27;1.20;;;;;;;;;;5091753;28;20047;-62
2023/02/07 02:08:38;;;;;;;4.00;1.07;;;;;;;;;;5093621;28;20027;-62
2023/02/07 02:11:23;;;;;;;1.80;1.10;;;;;;;;;;5096843;28;20146;-62
2023/02/07 02:13:50;;;;;;;3.60;1.77;;;;;;;;;;5092296;28;20028;-61
2023/02/07 02:16:17;;;;;;;2.13;1.20;;;;;;;;;;5093877;28;20043;-61
2023/02/07 02:18:56;;;;;;;2.27;1.57;;;;;;;;;;5096759;28;20481;-61
2023/02/07 02:21:37;;;;;;;3.33;1.83;;;;;;;;;;5095664;28;20665;-62
2023/02/07 02:24:19;;;;;;;8.67;2.20;;;;;;;;;;5097653;28;20039;-61
2023/02/07 02:27:18;;;;;;;3.00;1.87;;;;;;;;;;5093214;28;20031;-62
2023/02/07 02:29:44;;;;;;;2.73;1.23;;;;;;;;;;5030291;28;20032;-61
2023/02/07 02:32:29;;;;;;;2.37;1.00;;;;;;;;;;5095579;28;20023;-62
2023/02/07 02:35:04;;;;;;;1.90;0.98;;;;;;;;;;5098540;28;20089;-62
2023/02/07 02:37:47;;;;;;;1.90;0.73;;;;;;;;;;5094303;28;20497;-61
2023/02/07 02:40:28;;;;;;;1.63;0.90;;;;;;;;;;5092547;28;20053;-62
2023/02/07 02:42:58;;;;;;;1.40;0.80;;;;;;;;;;5085648;28;20012;-62
2023/02/07 02:45:47;;;;;;;2.97;1.50;;;;;;;;;;5083313;28;20020;-61
2023/02/07 02:48:20;;;;;;;2.23;1.33;;;;;;;;;;5087106;28;20425;-61
2023/02/07 02:50:50;;;;;;;4.87;2.07;;;;;;;;;;5112199;28;20034;-61
2023/02/07 02:53:19;;;;;;;6.87;2.60;;;;;;;;;;5111968;28;20102;-61
2023/02/07 02:55:52;;;;;;;3.53;2.30;;;;;;;;;;5099469;28;20421;-61
2023/02/07 02:58:21;;;;;;;10.10;3.60;;;;;;;;;;5094232;28;20026;-62
2023/02/07 03:01:02;;;;;;;15.87;2.20;;;;;;;;;;5105046;28;20032;-61
2023/02/07 03:03:47;;;;;;;7.77;3.73;;;;;;;;;;5103974;28;20028;-61
2023/02/07 03:06:28;;;;;;;2.65;1.58;;;;;;;;;;5090585;28;20479;-61
2023/02/07 03:09:03;;;;;;;6.13;1.87;;;;;;;;;;5101660;28;20020;-61
2023/02/07 03:11:31;;;;;;;6.27;2.63;;;;;;;;;;5106306;28;20098;-61
2023/02/07 03:14:07;;;;;;;7.40;3.90;;;;;;;;;;5093171;28;20031;-61
2023/02/07 03:16:42;;;;;;;5.40;2.90;;;;;;;;;;5106658;28;20031;-61
2023/02/07 03:19:11;;;;;;;11.45;2.58;;;;;;;;;;5113286;28;20024;-61
2023/02/07 03:21:59;;;;;;;14.13;2.60;;;;;;;;;;5097068;28;20489;-61
2023/02/07 03:24:29;;;;;;;4.60;2.83;;;;;;;;;;5090196;28;20035;-61
2023/02/07 03:26:57;;;;;;;3.00;1.47;;;;;;;;;;5103594;28;20501;-61
2023/02/07 03:29:24;;;;;;;1.63;0.87;;;;;;;;;;5098596;28;20024;-61
2023/02/07 03:31:52;;;;;;;4.60;2.60;;;;;;;;;;5107783;28;20027;-61
2023/02/07 03:34:22;;;;;;;4.13;1.73;;;;;;;;;;5101554;28;20019;-61
2023/02/07 03:36:58;;;;;;;2.07;1.43;;;;;;;;;;5094981;28;20065;-61
2023/02/07 03:39:25;;;;;;;4.70;1.80;;;;;;;;;;5102905;28;20478;-61
2023/02/07 03:42:12;;;;;;;4.90;1.50;;;;;;;;;;5104132;28;20052;-61
2023/02/07 03:44:40;;;;;;;3.57;1.67;;;;;;;;;;5076040;28;20036;-60
2023/02/07 03:47:07;;;;;;;2.53;1.33;;;;;;;;;;5090557;28;20037;-61
2023/02/07 03:49:33;;;;;;;1.57;0.97;;;;;;;;;;5093500;28;20062;-60
2023/02/07 03:52:00;;;;;;;2.57;1.37;;;;;;;;;;5095993;28;20033;-61
2023/02/07 03:54:27;;;;;;;2.00;1.43;;;;;;;;;;5088116;28;20020;-60
2023/02/07 03:56:54;;;;;;;7.47;1.67;;;;;;;;;;5089166;28;20039;-60
2023/02/07 03:59:21;;;;;;;1.80;1.23;;;;;;;;;;5092651;28;20032;-60
2023/02/07 04:01:48;;;;;;;2.10;1.67;;;;;;;;;;5107114;28;20801;-61
2023/02/07 04:04:15;;;;;;;5.03;2.23;;;;;;;;;;5095320;28;20059;-60
2023/02/07 04:06:42;;;;;;;2.17;1.43;;;;;;;;;;5093172;28;20030;-60
2023/02/07 04:09:08;;;;;;;1.63;1.10;;;;;;;;;;5103367;28;20054;-60
2023/02/07 04:11:35;;;;;;;3.07;1.20;;;;;;;;;;5108057;28;20027;-60
2023/02/07 04:14:02;;;;;;;1.33;0.97;;;;;;;;;;5090374;28;20101;-60
2023/02/07 04:16:29;;;;;;;1.47;1.13;;;;;;;;;;5087887;28;20028;-60
2023/02/07 04:18:56;;;;;;;1.80;1.20;;;;;;;;;;5104582;28;20030;-60
2023/02/07 04:21:23;;;;;;;1.57;0.90;;;;;;;;;;5105768;28;20055;-60
2023/02/07 04:23:49;;;;;;;1.20;0.87;;;;;;;;;;5096735;28;20520;-60
2023/02/07 04:26:16;;;;;;;1.03;0.80;;;;;;;;;;5092879;28;20052;-61
2023/02/07 04:28:43;;;;;;;0.73;0.70;;;;;;;;;;5112511;28;20035;-60
2023/02/07 04:31:09;;;;;;;2.37;0.93;;;;;;;;;;5111275;28;20016;-60
2023/02/07 04:33:36;;;;;;;1.37;0.67;;;;;;;;;;5107877;28;20450;-60
2023/02/07 04:36:03;;;;;;;1.40;0.97;;;;;;;;;;5092726;28;20110;-60
2023/02/07 04:38:30;;;;;;;4.00;1.40;;;;;;;;;;5107514;28;20020;-61
2023/02/07 04:41:02;;;;;;;3.00;1.50;;;;;;;;;;5106455;28;20028;-60
2023/02/07 04:43:29;;;;;;;1.57;1.17;;;;;;;;;;5094596;28;20483;-60
2023/02/07 04:45:56;;;;;;;2.17;1.47;;;;;;;;;;5111072;28;20383;-60
2023/02/07 04:48:22;;;;;;;1.53;0.90;;;;;;;;;;5106996;28;20026;-60
2023/02/07 04:50:49;;;;;;;1.10;1.00;;;;;;;;;;5097739;28;20107;-61
2023/02/07 04:53:16;;;;;;;3.97;2.43;;;;;;;;;;5093298;28;20028;-60
2023/02/07 04:55:43;;;;;;;1.97;1.50;;;;;;;;;;5086986;28;20103;-60
2023/02/07 04:58:09;;;;;;;2.47;1.70;;;;;;;;;;5087129;28;20115;-60
2023/02/07 05:00:36;;;;;;;1.70;1.23;;;;;;;;;;5093110;28;20036;-60
2023/02/07 05:03:03;;;;;;;1.93;1.37;;;;;;;;;;5088610;28;20031;-61
2023/02/07 05:05:30;;;;;;;2.83;1.60;;;;;;;;;;5109116;28;20378;-61
2023/02/07 05:07:56;;;;;;;2.23;1.47;;;;;;;;;;5101245;28;20106;-61
2023/02/07 05:10:23;;;;;;;3.93;1.67;;;;;;;;;;5099953;28;20490;-61
2023/02/07 05:12:50;;;;;;;3.73;1.77;;;;;;;;;;5101958;28;20095;-61
2023/02/07 05:15:16;;;;;;;8.97;2.00;;;;;;;;;;5111038;28;20024;-61
2023/02/07 05:17:43;;;;;;;4.33;2.20;;;;;;;;;;5108490;28;20027;-60
2023/02/07 05:20:10;;;;;;;6.50;1.83;;;;;;;;;;5097422;28;20039;-60
2023/02/07 05:22:37;;;;;;;2.63;1.43;;;;;;;;;;5109714;28;20426;-60
2023/02/07 05:25:03;;;;;;;2.40;1.33;;;;;;;;;;5095044;28;20414;-61
2023/02/07 05:27:30;;;;;;;5.80;1.70;;;;;;;;;;5095056;28;20050;-60
2023/02/07 05:29:58;;;;;;;1.70;1.10;;;;;;;;;;5108850;28;20099;-60
2023/02/07 05:35:10;;;;;;;0.70;0.60;;;;;;;;;;5109414;28;20175;-60
2023/02/07 05:37:37;;;;;;;4.13;1.20;;;;;;;;;;5114102;28;20102;-60
2023/02/07 05:40:04;;;;;;;2.17;1.37;;;;;;;;;;5093253;28;20032;-60
2023/02/07 05:42:31;;;;;;;2.13;1.10;;;;;;;;;;5089524;28;20527;-60
2023/02/07 05:44:57;;;;;;;1.70;1.17;;;;;;;;;;5090325;28;20103;-60
2023/02/07 05:47:24;;;;;;;1.33;0.87;;;;;;;;;;5089437;28;20027;-60
2023/02/07 05:49:51;;;;;;;1.50;0.83;;;;;;;;;;5108388;28;20079;-60
2023/02/07 05:52:18;;;;;;;0.77;0.57;;;;;;;;;;5114631;28;20028;-60
2023/02/07 05:54:44;;;;;;;0.87;0.60;;;;;;;;;;5112909;28;20050;-60
2023/02/07 05:57:11;;;;;;;1.10;0.77;;;;;;;;;;5105874;28;20160;-60
2023/02/07 05:59:38;;;;;;;1.27;0.73;;;;;;;;;;5093993;28;20032;-60
2023/02/07 06:02:04;;;;;;;1.30;1.13;;;;;;;;;;5089876;28;20031;-60
2023/02/07 06:04:31;;;;;;;4.70;1.33;;;;;;;;;;5088920;28;20637;-60
2023/02/07 06:06:58;;;;;;;1.87;1.47;;;;;;;;;;5102553;28;20035;-60
2023/02/07 06:09:25;;;;;;;3.50;1.73;;;;;;;;;;5108801;28;20092;-60
2023/02/07 06:11:51;;;;;;;3.30;1.47;;;;;;;;;;5101486;28;20375;-60
2023/02/07 06:14:18;;;;;;;7.67;2.17;;;;;;;;;;5094192;28;20110;-60
2023/02/07 06:16:45;;;;;;;2.50;1.50;;;;;;;;;;5105223;28;20032;-61
2023/02/07 06:19:11;;;;;;;2.53;1.50;;;;;;;;;;5114077;28;20056;-60
2023/02/07 06:21:39;;;;;;;2.10;1.27;;;;;;;;;;5103601;28;20063;-60
2023/02/07 06:24:06;;;;;;;1.70;1.03;;;;;;;;;;5088552;28;20016;-60
2023/02/07 06:26:33;;;;;;;6.13;1.60;;;;;;;;;;5097392;28;20035;-60
2023/02/07 06:29:00;;;;;;;1.60;1.30;;;;;;;;;;5108447;28;20024;-62
2023/02/07 06:31:27;;;;;;;4.40;1.00;;;;;;;;;;5088448;28;20032;-60
2023/02/07 06:33:53;;;;;;;1.57;0.97;;;;;;;;;;5093047;28;20047;-60
2023/02/07 06:36:20;;;;;;;1.43;1.00;;;;;;;;;;5112396;28;20077;-60
2023/02/07 06:38:48;;;;;;;1.00;0.83;;;;;;;;;;5114103;28;20078;-60
2023/02/07 06:41:14;;;;;;;3.67;1.60;;;;;;;;;;5111986;28;20093;-60
2023/02/07 06:43:41;;;;;;;2.87;1.23;;;;;;;;;;5113292;28;20039;-60
2023/02/07 06:46:08;;;;;;;1.40;0.93;;;;;;;;;;5104153;28;20040;-60
2023/02/07 06:48:34;;;;;;;1.67;1.20;;;;;;;;;;5108450;28;20016;-60
2023/02/07 06:51:01;;;;;;;2.10;1.33;;;;;;;;;;5093816;28;20031;-60
2023/02/07 06:53:28;;;;;;;3.57;1.87;;;;;;;;;;5087959;28;20035;-60
2023/02/07 06:55:55;;;;;;;3.47;1.73;;;;;;;;;;5094147;28;20059;-60
2023/02/07 06:58:22;;;;;;;1.23;0.83;;;;;;;;;;5100014;28;20024;-60
2023/02/07 07:00:48;;;;;;;2.60;1.40;;;;;;;;;;5093235;28;20031;-60
2023/02/07 07:03:16;;;;;;;2.60;1.27;;;;;;;;;;5102502;28;20121;-60
2023/02/07 07:05:42;;;;;;;2.23;1.50;;;;;;;;;;5113722;28;20355;-60
2023/02/07 07:08:17;;;;;;;3.17;2.00;;;;;;;;;;5090440;28;20035;-60
2023/02/07 07:10:43;;;;;;;1.70;1.37;;;;;;;;;;5087746;28;20554;-60
2023/02/07 07:13:11;;;;;;;1.10;0.90;;;;;;;;;;5104418;28;20314;-60
2023/02/07 07:15:37;;;;;;;2.00;1.50;;;;;;;;;;5107833;28;20024;-60
2023/02/07 07:18:04;;;;;;;1.90;1.30;;;;;;;;;;5095143;28;20106;-60
2023/02/07 07:20:31;;;;;;;2.07;1.43;;;;;;;;;;5092782;28;20605;-62
2023/02/07 07:22:58;;;;;;;1.93;1.40;;;;;;;;;;5107265;28;20027;-63
2023/02/07 07:25:24;;;;;;;1.57;1.00;;;;;;;;;;5113260;28;20085;-60
2023/02/07 07:27:52;;;;;;;2.33;1.70;;;;;;;;;;5098658;28;20042;-60
2023/02/07 07:30:19;;;;;;;9.17;2.47;;;;;;;;;;5088119;28;20034;-61
2023/02/07 07:32:46;;;;;;;2.53;1.60;;;;;;;;;;5098761;28;20398;-63
2023/02/07 07:35:12;;;;;;;1.53;1.07;;;;;;;;;;5098777;28;20040;-60
2023/02/07 07:37:40;;;;;;;1.67;1.30;;;;;;;;;;5087082;28;20028;-63
2023/02/07 07:40:07;;;;;;;3.47;1.57;;;;;;;;;;5097280;28;20035;-62
2023/02/07 07:42:35;;;;;;;1.83;1.40;;;;;;;;;;5112659;28;20024;-62
2023/02/07 07:45:02;;;;;;;2.70;1.90;;;;;;;;;;5105459;28;20030;-62
2023/02/07 07:47:31;;;;;;;1.73;1.03;;;;;;;;;;5092465;28;20101;-62
2023/02/07 07:49:58;;;;;;;1.43;1.10;;;;;;;;;;5097816;28;20024;-62
2023/02/07 07:52:24;;;;;;;2.13;0.77;;;;;;;;;;5090333;28;20405;-63
2023/02/07 07:54:51;;;;;;;3.20;1.27;;;;;;;;;;5101527;28;20020;-62
2023/02/07 07:57:18;;;;;;;6.37;1.47;;;;;;;;;;5086940;28;20078;-62
2023/02/07 07:59:45;;;;;;;1.17;0.90;;;;;;;;;;5090009;28;20066;-62
2023/02/07 08:02:14;;;;;;;1.63;1.27;;;;;;;;;;5109891;28;20508;-62
2023/02/07 08:04:41;;;;;;;1.80;1.10;;;;;;;;;;5109196;28;20049;-62
2023/02/07 08:07:08;;;;;;;1.30;1.20;;;;;;;;;;5092354;28;20024;-62
2023/02/07 08:09:34;;;;;;;0.80;0.80;;;;;;;;;;5093722;28;20447;-62
2023/02/07 08:12:01;;;;;;;1.70;1.10;;;;;;;;;;5112353;28;20482;-62
2023/02/07 08:14:28;;;;;;;2.00;1.20;;;;;;;;;;5107605;28;20066;-62
2023/02/07 08:16:54;;;;;;;0.77;0.70;;;;;;;;;;5086617;28;20016;-62
2023/02/07 08:19:21;;;;;;;1.83;1.30;;;;;;;;;;5086380;28;20478;-62
2023/02/07 08:21:48;;;;;;;1.90;1.10;;;;;;;;;;5106073;28;20046;-62
2023/02/07 08:24:15;;;;;;;2.07;1.00;;;;;;;;;;5108926;28;20259;-60
2023/02/07 08:26:42;;;;;;;4.07;1.77;;;;;;;;;;5111780;28;20817;-60
2023/02/07 08:29:09;;;;;;;1.27;1.00;;;;;;;;;;5112228;28;20248;-63
2023/02/07 08:31:35;;;;;;;2.73;1.30;;;;;;;;;;5092353;28;20028;-64
2023/02/07 08:34:02;;;;;;;2.03;1.60;;;;;;;;;;5091723;28;20016;-63
2023/02/07 08:36:29;;;;;;;3.90;1.73;;;;;;;;;;5108358;28;20430;-60
2023/02/07 08:38:55;;;;;;;1.30;1.00;;;;;;;;;;5106824;28;20252;-62
2023/02/07 08:41:22;;;;;;;0.87;0.57;;;;;;;;;;5088936;28;20280;-62
2023/02/07 08:43:49;;;;;;;1.67;1.20;;;;;;;;;;5094885;28;20819;-62
2023/02/07 08:46:15;;;;;;;1.60;1.20;;;;;;;;;;5091143;28;20264;-62
2023/02/07 08:48:42;;;;;;;2.00;1.67;;;;;;;;;;5116327;28;20253;-62
2023/02/07 08:51:09;;;;;;;3.30;2.40;;;;;;;;;;5099938;28;20689;-60
2023/02/07 08:53:36;;;;;;;3.63;2.27;;;;;;;;;;5095765;28;20264;-63
2023/02/07 08:56:03;;;;;;;1.97;1.63;;;;;;;;;;5105969;28;20291;-62
2023/02/07 08:58:30;;;;;;;4.10;2.07;;;;;;;;;;5113548;28;20252;-62
2023/02/07 09:00:56;;;;;;;4.47;2.27;;;;;;;;;;5096524;28;20331;-60
2023/02/07 09:03:23;;;;;;;4.60;1.80;;;;;;;;;;5089846;28;20272;-60
2023/02/07 09:05:50;;;;;;;3.23;1.93;;;;;;;;;;5102263;28;20271;-60
2023/02/07 09:08:17;;;;;;;3.00;1.50;;;;;;;;;;5111651;28;20300;-60
2023/02/07 09:10:44;;;;;;;2.10;1.40;;;;;;;;;;5113986;28;20286;-60
2023/02/07 09:13:11;;;;;;;3.37;1.80;;;;;;;;;;5115930;28;20742;-60
2023/02/07 09:15:37;;;;;;;1.93;1.17;;;;;;;;;;5113903;28;20264;-60
2023/02/07 09:18:04;;;;;;;2.93;1.93;;;;;;;;;;5115819;28;20761;-60
2023/02/07 09:20:31;;;;;;;3.17;1.70;;;;;;;;;;5101845;28;20297;-60
2023/02/07 09:25:43;;;;;;;1.50;1.40;;;;;;;;;;5102717;28;20333;-60
2023/02/07 09:28:09;;;;;;;1.60;1.30;;;;;;;;;;5110065;28;20073;-62
2023/02/07 09:30:36;;;;;;;2.40;1.63;;;;;;;;;;5099884;28;20270;-60
2023/02/07 09:33:03;;;;;;;3.23;2.27;;;;;;;;;;5095110;28;20295;-60
2023/02/07 09:35:30;;;;;;;3.37;2.00;;;;;;;;;;5104710;28;20298;-60
2023/02/07 09:37:56;;;;;;;1.83;1.30;;;;;;;;;;5110026;28;20267;-60
2023/02/07 09:40:23;;;;;;;1.97;1.40;;;;;;;;;;5094932;28;20291;-60
2023/02/07 09:43:08;;;;;;;3.17;2.20;;;;;;;;;;5094729;28;20283;-63
2023/02/07 09:45:37;;;;;;;10.77;2.05;;;;;;;;;;5109346;28;20260;-63
2023/02/07 09:48:07;;;;;;;1.90;1.60;;;;;;;;;;5105037;28;20478;-63
2023/02/07 09:50:39;;;;;;;3.20;2.17;;;;;;;;;;5089211;28;20265;-60
2023/02/07 09:53:14;;;;;;;2.00;1.37;;;;;;;;;;5095814;28;20272;-60
2023/02/07 09:55:43;;;;;;;2.90;1.23;;;;;;;;;;5114133;28;20753;-60
2023/02/07 09:58:23;;;;;;;1.77;1.30;;;;;;;;;;5102361;28;20106;-60
2023/02/07 10:00:58;;;;;;;2.50;1.93;;;;;;;;;;5091910;28;20295;-60
2023/02/07 10:03:25;;;;;;;1.15;1.00;;;;;;;;;;5101040;28;20280;-60
2023/02/07 10:06:02;;;;;;;2.90;1.40;;;;;;;;;;5110563;28;20023;-60
2023/02/07 10:08:29;;;;;;;1.40;1.20;;;;;;;;;;5101875;28;20294;-60
2023/02/07 10:11:13;;;;;;;4.63;2.50;;;;;;;;;;5088524;28;20324;-60
2023/02/07 10:13:39;;;;;;;2.40;1.57;;;;;;;;;;5096291;28;20304;-60
2023/02/07 10:16:25;;;;;;;2.70;1.53;;;;;;;;;;5113621;28;20268;-60
2023/02/07 10:18:57;;;;;;;2.60;1.77;;;;;;;;;;5105112;28;20731;-60
2023/02/07 10:21:23;;;;;;;3.33;2.30;;;;;;;;;;5093993;28;20039;-60
2023/02/07 10:24:16;;;;;;;7.70;1.87;;;;;;;;;;5084518;28;20299;-60
2023/02/07 10:26:48;;;;;;;6.33;2.17;;;;;;;;;;5112962;28;20305;-60
2023/02/07 10:29:30;;;;;;;2.87;2.00;;;;;;;;;;5096739;28;20272;-60
2023/02/07 10:31:59;;;;;;;4.50;1.50;;;;;;;;;;5088500;28;20253;-60
2023/02/07 10:34:30;;;;;;;2.97;2.17;;;;;;;;;;5100748;28;20263;-60
2023/02/07 10:36:58;;;;;;;1.77;1.50;;;;;;;;;;5109664;28;20592;-60
2023/02/07 10:39:31;;;;;;;1.50;1.40;;;;;;;;;;5101487;28;20277;-60
2023/02/07 10:41:58;;;;;;;5.40;2.20;;;;;;;;;;5093690;28;20306;-62
2023/02/07 10:44:27;;;;;;;4.17;2.87;;;;;;;;;;5086128;28;20363;-62
2023/02/07 10:46:57;;;;;;;2.30;1.67;;;;;;;;;;5113947;28;20645;-62
2023/02/07 10:49:25;;;;;;;1.30;1.13;;;;;;;;;;5099528;28;20275;-60
2023/02/07 10:51:54;;;;;;;2.83;2.53;;;;;;;;;;5108166;28;20303;-60
2023/02/07 10:54:23;;;;;;;2.87;2.13;;;;;;;;;;5103651;28;20307;-60
2023/02/07 10:56:51;;;;;;;2.77;1.63;;;;;;;;;;5101702;28;20743;-60
2023/02/07 10:59:27;;;;;;;3.53;1.80;;;;;;;;;;5089496;28;20751;-60
2023/02/07 11:01:54;;;;;;;3.07;1.70;;;;;;;;;;5101383;28;20613;-59
2023/02/07 11:04:33;;;;;;;2.77;2.23;;;;;;;;;;5092978;28;20272;-60
2023/02/07 11:07:01;;;;;;;2.97;1.80;;;;;;;;;;5097754;28;20283;-60
2023/02/07 11:09:28;;;;;;;4.83;2.40;;;;;;;;;;5098798;28;20264;-59
2023/02/07 11:11:55;;;;;;;4.30;2.17;;;;;;;;;;5095885;28;20275;-60
2023/02/07 11:14:27;;;;;;;5.33;2.60;;;;;;;;;;5107703;28;20256;-60
2023/02/07 11:16:55;;;;;;;9.20;1.60;;;;;;;;;;5101859;28;20311;-62
2023/02/07 11:19:26;;;;;;;2.67;1.87;;;;;;;;;;5087195;28;20309;-60
2023/02/07 11:22:17;;;;;;;3.23;1.93;;;;;;;;;;5095073;28;20260;-60
2023/02/07 11:24:45;;;;;;;3.13;2.13;;;;;;;;;;5112873;28;20318;-60
2023/02/07 11:27:34;;;;;;;2.20;1.40;;;;;;;;;;5102884;28;20268;-59
2023/02/07 11:30:06;;;;;;;2.67;2.27;;;;;;;;;;5112886;28;20272;-60
2023/02/07 11:32:35;;;;;;;12.07;2.40;;;;;;;;;;5101765;28;20310;-60
2023/02/07 11:35:08;;;;;;;1.90;1.60;;;;;;;;;;5087449;28;20614;-60
2023/02/07 11:37:36;;;;;;;4.83;2.83;;;;;;;;;;5096919;28;20393;-60
2023/02/07 11:40:21;;;;;;;1.10;1.00;;;;;;;;;;5107373;28;20284;-60
2023/02/07 11:42:48;;;;;;;1.95;1.65;;;;;;;;;;5094377;28;20933;-60
2023/02/07 11:45:16;;;;;;;1.60;1.33;;;;;;;;;;5092252;28;20020;-60
2023/02/07 11:47:44;;;;;;;2.47;2.00;;;;;;;;;;5103063;28;20272;-60
2023/02/07 11:50:18;;;;;;;1.47;1.30;;;;;;;;;;5112821;28;20785;-60
2023/02/07 11:52:49;;;;;;;2.93;2.13;;;;;;;;;;5100452;28;20310;-60
2023/02/07 11:55:21;;;;;;;2.03;1.50;;;;;;;;;;5091908;28;20249;-60
2023/02/07 11:57:47;;;;;;;3.00;2.07;;;;;;;;;;5098203;28;20347;-60
2023/02/07 12:00:23;;;;;;;3.70;2.63;;;;;;;;;;5100485;28;20697;-60
2023/02/07 12:03:03;;;;;;;4.50;2.00;;;;;;;;;;5094710;28;20277;-60
2023/02/07 12:05:34;;;;;;;4.70;2.87;;;;;;;;;;5094772;28;20299;-60
2023/02/07 12:08:04;;;;;;;1.70;1.37;;;;;;;;;;5099133;28;20352;-59
2023/02/07 12:10:35;;;;;;;2.80;2.37;;;;;;;;;;5106803;28;20317;-60
2023/02/07 12:13:02;;;;;;;3.53;2.83;;;;;;;;;;5112574;28;20267;-60
2023/02/07 12:15:32;;;;;;;3.13;2.30;;;;;;;;;;5106387;28;20248;-60
2023/02/07 12:18:02;;;;;;;3.80;2.13;;;;;;;;;;5090078;28;21672;-62
2023/02/07 12:20:32;;;;;;;3.13;1.80;;;;;;;;;;5094522;28;20639;-63
2023/02/07 12:23:28;;;;;;;7.53;2.00;;;;;;;;;;5111475;28;20282;-62
2023/02/07 12:25:58;;;;;;;1.52;0.82;;;;;;;;;;5079763;28;20272;-63
2023/02/07 12:28:34;;;;;;;3.23;1.57;;;;;;;;;;5092904;28;20035;-62
2023/02/07 12:31:03;;;;;;;2.23;1.53;;;;;;;;;;5097143;28;20304;-62
2023/02/07 12:33:51;;;;;;;3.77;2.57;;;;;;;;;;5096245;28;20292;-60
2023/02/07 12:36:25;;;;;;;3.80;2.07;;;;;;;;;;5097529;28;20281;-59
2023/02/07 12:39:00;;;;;;;2.33;1.93;;;;;;;;;;5096199;28;20757;-60
2023/02/07 12:41:33;;;;;;;2.38;1.60;;;;;;;;;;5102324;28;20294;-60
2023/02/07 12:44:07;;;;;;;2.27;1.90;;;;;;;;;;5110199;28;20023;-60
2023/02/07 12:46:34;;;;;;;4.27;2.80;;;;;;;;;;5096679;28;20732;-60
2023/02/07 12:49:23;;;;;;;3.00;2.10;;;;;;;;;;5090338;28;20331;-60
2023/02/07 12:51:58;;;;;;;2.03;1.63;;;;;;;;;;5098774;28;20776;-60
2023/02/07 12:54:43;;;;;;;1.48;1.15;;;;;;;;;;5115965;28;20672;-60
2023/02/07 12:57:15;;;;;;;3.05;2.22;;;;;;;;;;5099151;28;20288;-60
2023/02/07 13:00:00;;;;;;;3.50;2.37;;;;;;;;;;5095643;28;20387;-59
2023/02/07 13:02:45;;;;;;;3.00;2.53;;;;;;;;;;5096542;28;20275;-59
2023/02/07 13:05:27;;;;;;;5.28;2.65;;;;;;;;;;5105462;28;20024;-60
2023/02/07 13:08:04;;;;;;;5.03;2.20;;;;;;;;;;5085099;28;20348;-59
2023/02/07 13:10:43;;;;;;;4.67;2.90;;;;;;;;;;5110302;28;20256;-60
2023/02/07 13:13:28;;;;;;;2.43;1.73;;;;;;;;;;5098222;28;20600;-60
2023/02/07 13:16:02;;;;;;;6.18;2.10;;;;;;;;;;5095369;28;20257;-60
2023/02/07 13:18:28;;;;;;;1.87;1.57;;;;;;;;;;5111213;28;20027;-60
2023/02/07 13:21:07;;;;;;;2.67;1.70;;;;;;;;;;5106051;28;20280;-60
2023/02/07 13:23:37;;;;;;;1.10;1.00;;;;;;;;;;5095362;28;20260;-60
2023/02/07 13:26:15;;;;;;;7.53;2.93;;;;;;;;;;5091144;28;20280;-60
2023/02/07 13:28:48;;;;;;;1.67;1.30;;;;;;;;;;5095811;28;20272;-60
2023/02/07 13:31:19;;;;;;;3.53;1.37;;;;;;;;;;5109301;28;20264;-60
2023/02/07 13:33:48;;;;;;;2.03;1.47;;;;;;;;;;5089750;28;20765;-60
2023/02/07 13:36:17;;;;;;;3.93;2.63;;;;;;;;;;5099786;28;20328;-60
2023/02/07 13:38:55;;;;;;;2.30;1.63;;;;;;;;;;5114583;28;20268;-60
2023/02/07 13:41:28;;;;;;;4.80;2.67;;;;;;;;;;5105869;28;20646;-60
2023/02/07 13:43:55;;;;;;;6.43;3.27;;;;;;;;;;5095017;28;20253;-60
2023/02/07 13:46:31;;;;;;;2.43;2.17;;;;;;;;;;5095163;28;20257;-60
2023/02/07 13:49:07;;;;;;;4.87;3.10;;;;;;;;;;5088856;28;20310;-60
2023/02/07 13:51:52;;;;;;;9.17;3.93;;;;;;;;;;5099937;28;20271;-59
2023/02/07 13:54:31;;;;;;;18.33;4.05;;;;;;;;;;5109541;28;20397;-60
2023/02/07 14:00:04;;;;;;;5.43;3.03;;;;;;;;;;5114922;28;20295;-60
2023/02/07 14:02:31;;;;;;;7.93;4.50;;;;;;;;;;5095283;28;20272;-60
2023/02/07 14:05:06;;;;;;;4.97;3.00;;;;;;;;;;5102415;28;20306;-60
2023/02/07 14:07:34;;;;;;;13.38;4.50;;;;;;;;;;5114812;28;20738;-60
2023/02/07 14:10:02;;;;;;;4.23;3.10;;;;;;;;;;5093672;28;20032;-61
2023/02/07 14:12:33;;;;;;;7.60;2.97;;;;;;;;;;5090063;28;20036;-60
2023/02/07 14:15:18;;;;;;;6.63;4.13;;;;;;;;;;5101581;28;20032;-60
2023/02/07 14:17:45;;;;;;;7.00;5.72;;;;;;;;;;5109052;28;20121;-60
2023/02/07 14:20:30;;;;;;;9.23;5.80;;;;;;;;;;5112005;28;20035;-61
2023/02/07 14:22:56;;;;;;;14.10;5.45;;;;;;;;;;5094079;28;20103;-60
2023/02/07 14:25:37;;;;;;;21.33;4.80;;;;;;;;;;5093163;28;20024;-60
2023/02/07 14:28:08;;;;;;;4.93;3.60;;;;;;;;;;5093600;28;20363;-60
2023/02/07 14:30:51;;;;;;;2.43;2.17;;;;;;;;;;5093327;28;20024;-60
2023/02/07 14:33:30;;;;;;;9.53;5.70;;;;;;;;;;5086528;28;20016;-61
2023/02/07 14:36:09;;;;;;;5.93;4.33;;;;;;;;;;5102075;28;20037;-60
2023/02/07 14:38:35;;;;;;;5.57;3.57;;;;;;;;;;5108716;28;20099;-60
2023/02/07 14:41:04;;;;;;;6.93;3.30;;;;;;;;;;5096179;28;20075;-60
2023/02/07 14:43:36;;;;;;;4.50;3.47;;;;;;;;;;5095842;28;20051;-60
2023/02/07 14:46:08;;;;;;;4.77;3.10;;;;;;;;;;5088845;28;20031;-61
2023/02/07 14:48:41;;;;;;;7.13;3.63;;;;;;;;;;5094567;28;20030;-60
2023/02/07 14:51:13;;;;;;;5.03;3.67;;;;;;;;;;5102840;28;20012;-60
2023/02/07 14:53:44;;;;;;;8.77;5.00;;;;;;;;;;5085256;28;20025;-61
2023/02/07 14:56:26;;;;;;;7.23;3.67;;;;;;;;;;5083652;28;20424;-61
2023/02/07 14:58:54;;;;;;;5.43;2.30;;;;;;;;;;5083101;28;20062;-60
2023/02/07 15:01:23;;;;;;;6.53;4.07;;;;;;;;;;5087397;28;20058;-60
2023/02/07 15:04:10;;;;;;;4.97;2.57;;;;;;;;;;5090310;28;20028;-61
2023/02/07 15:06:42;;;;;;;5.20;3.10;;;;;;;;;;5084755;28;20054;-61
2023/02/07 15:09:19;;;;;;;5.53;3.33;;;;;;;;;;5083875;28;20398;-61